Alyeska Resort
Max's Hourly Weather Roundup
ALYESKA_MAX 8/28/2015
Click Here for Graph

        DATE  TIME   Air  Wind  Wind  Wind  BATT   Rel
                    Temp   Spd   Dir  Gust  Volt  Hum%
                      F   MPH   AVG   MPH   AVG   AVG

   8/28/2015 10:00    34    15   206    31 13.56    90
   8/28/2015 09:00    36     6   226    26 13.58    67
   8/28/2015 08:00    36     8   245    24 13.12    64
   8/28/2015 07:00    34    13   231    28 12.75    79
   8/28/2015 06:00    34    19   225    35 12.77    79
   8/28/2015 05:00    34    17   227    38 12.79    77
   8/28/2015 04:00    35    14   213    27 12.81    78
   8/28/2015 03:00    35    16   215    33 12.83    80
   8/28/2015 02:00    34    16   214    34 12.86    89
   8/28/2015 01:00    35    12   214    35 12.89    91
   8/27/2015 24:00    36    13   236    31 12.94    92
   8/27/2015 23:00    36    11   241    21 13.02    96
   8/27/2015 22:00    35    12   263    23 13.17    96
   8/27/2015 21:00    38    21          36 13.40    71
   8/27/2015 20:00    41    29          46 13.83    60
   8/27/2015 19:00    43    17          31 13.75    72
   8/27/2015 18:00    44    24          43 13.74    73
   8/27/2015 17:00    47    24          46 13.70    64
   8/27/2015 16:00    49    20   288    43 13.65    64
   8/27/2015 15:00    48    20          35 13.64    69
   8/27/2015 14:00    47    16   300    31 13.58    69
   8/27/2015 13:00    46    16          32 13.61    71
   8/27/2015 12:00    45     9   284    22 13.64    75
   8/27/2015 11:00    45     6   229    17 13.59    84


Click Here for Graph